createdAt,value
2022-08-18T00:00:31.583Z,26.69
2022-08-18T00:01:32.178Z,26.75
2022-08-18T00:02:31.613Z,26.21
2022-08-18T00:03:56.643Z,26.80
2022-08-18T00:04:35.789Z,26.64
2022-08-18T00:05:31.538Z,26.86
2022-08-18T00:06:31.520Z,26.64
2022-08-18T00:07:31.520Z,26.69
2022-08-18T00:08:34.818Z,26.75
2022-08-18T00:09:32.729Z,26.21
2022-08-18T00:10:31.466Z,26.59
2022-08-18T00:11:41.133Z,26.59
2022-08-18T00:12:31.458Z,26.80
2022-08-18T00:13:31.429Z,26.69
2022-08-18T00:14:31.400Z,26.80
2022-08-18T00:15:31.463Z,26.69
2022-08-18T00:16:31.408Z,26.64
2022-08-18T00:17:31.365Z,26.48
2022-08-18T00:18:31.377Z,26.64
2022-08-18T00:19:46.866Z,26.69
2022-08-18T00:20:31.348Z,26.64
2022-08-18T00:21:31.312Z,26.64
2022-08-18T00:22:31.330Z,26.86
2022-08-18T00:23:31.350Z,26.64
2022-08-18T00:24:31.278Z,26.75
2022-08-18T00:25:31.300Z,26.80
2022-08-18T00:26:36.252Z,26.64
2022-08-18T00:27:31.240Z,26.75
2022-08-18T00:28:31.209Z,26.69
2022-08-18T00:29:31.210Z,26.59
2022-08-18T00:30:31.204Z,26.69
2022-08-18T00:31:31.201Z,26.26
2022-08-18T00:32:31.214Z,26.21
2022-08-18T00:33:31.154Z,26.59
2022-08-18T00:34:31.145Z,26.75
2022-08-18T00:35:31.128Z,26.80
2022-08-18T00:36:31.138Z,26.53
2022-08-18T00:37:31.130Z,26.75
2022-08-18T00:38:31.087Z,26.69
2022-08-18T00:39:35.033Z,26.75
2022-08-18T00:40:35.759Z,26.59
2022-08-18T00:41:31.043Z,26.69
2022-08-18T00:42:31.362Z,26.69
2022-08-18T00:43:31.009Z,26.64
2022-08-18T00:44:31.013Z,26.64
2022-08-18T00:45:30.991Z,26.75
2022-08-18T00:46:30.967Z,26.59
2022-08-18T00:47:41.158Z,26.53
2022-08-18T00:48:31.007Z,26.75
2022-08-18T00:49:30.961Z,26.21
2022-08-18T00:50:30.977Z,26.75
2022-08-18T00:51:30.924Z,26.69
2022-08-18T00:52:30.908Z,26.80
2022-08-18T00:53:30.907Z,26.80
2022-08-18T00:54:30.862Z,26.64
2022-08-18T00:55:30.871Z,26.75
2022-08-18T00:56:30.862Z,26.69
2022-08-18T00:57:30.841Z,26.80
2022-08-18T00:58:30.824Z,26.75
2022-08-18T00:59:30.836Z,26.64
2022-08-18T01:00:30.854Z,26.80
2022-08-18T01:01:30.857Z,26.75
2022-08-18T01:02:30.822Z,26.64
2022-08-18T01:03:30.782Z,26.64
2022-08-18T01:04:30.741Z,26.53
2022-08-18T01:05:30.749Z,26.26
2022-08-18T01:06:30.715Z,26.59
2022-08-18T01:07:30.701Z,26.59
2022-08-18T01:08:30.679Z,26.80
2022-08-18T01:09:30.689Z,26.75
2022-08-18T01:10:30.647Z,26.69
2022-08-18T01:11:30.675Z,26.64
2022-08-18T01:12:45.694Z,25.83
2022-08-18T01:13:30.638Z,26.75
2022-08-18T01:14:30.625Z,26.64
2022-08-18T01:15:30.808Z,26.53
2022-08-18T01:16:30.648Z,26.21
2022-08-18T01:17:30.557Z,26.64
2022-08-18T01:18:30.568Z,26.75
2022-08-18T01:19:30.648Z,26.75
2022-08-18T01:20:30.727Z,26.64
2022-08-18T01:21:30.513Z,26.59
2022-08-18T01:22:30.494Z,26.26
2022-08-18T01:23:30.497Z,26.69
2022-08-18T01:24:30.699Z,26.59
2022-08-18T01:25:30.754Z,26.69
2022-08-18T01:26:30.443Z,26.64
2022-08-18T01:27:30.445Z,26.86
2022-08-18T01:28:30.445Z,26.69
2022-08-18T01:29:30.558Z,26.75
2022-08-18T01:30:30.389Z,26.64
2022-08-18T01:31:30.415Z,26.48
2022-08-18T01:32:30.377Z,26.69
2022-08-18T01:33:30.515Z,26.64
2022-08-18T01:34:30.496Z,26.69
2022-08-18T01:35:36.175Z,26.43
2022-08-18T01:36:30.384Z,26.53
2022-08-18T01:37:30.332Z,26.59
2022-08-18T01:38:30.313Z,26.80
2022-08-18T01:41:21.350Z,26.64
2022-08-18T01:41:33.992Z,26.80
2022-08-18T01:41:39.465Z,26.80
2022-08-18T01:42:39.419Z,26.10
2022-08-18T01:43:39.466Z,26.37
2022-08-18T01:44:39.408Z,26.37
2022-08-18T01:45:39.427Z,26.75
2022-08-18T01:46:39.380Z,26.64
2022-08-18T01:47:47.954Z,26.53
2022-08-18T01:48:39.412Z,26.43
2022-08-18T01:49:39.347Z,26.80
2022-08-18T01:50:39.342Z,26.53
2022-08-18T01:51:40.558Z,26.64
2022-08-18T01:52:39.291Z,26.53
2022-08-18T01:53:39.300Z,26.48
2022-08-18T01:54:39.277Z,26.16
2022-08-18T01:55:39.264Z,26.59
2022-08-18T01:56:39.245Z,26.64
2022-08-18T01:57:39.257Z,26.59
2022-08-18T01:58:39.241Z,26.75
2022-08-18T01:59:39.211Z,26.59
2022-08-18T02:00:39.264Z,26.75
2022-08-18T02:01:41.504Z,26.53
2022-08-18T02:02:39.155Z,26.69
2022-08-18T02:03:39.177Z,26.64
2022-08-18T02:04:39.178Z,26.10
2022-08-18T02:05:39.157Z,26.59
2022-08-18T02:06:39.179Z,26.75
2022-08-18T02:07:39.145Z,26.53
2022-08-18T02:08:39.064Z,26.80
2022-08-18T02:09:39.069Z,26.75
2022-08-18T02:10:39.084Z,26.53
2022-08-18T02:11:39.059Z,26.69
2022-08-18T02:12:39.041Z,26.69
2022-08-18T02:13:39.026Z,26.64
2022-08-18T02:14:39.013Z,26.80
2022-08-18T02:15:42.061Z,26.53
2022-08-18T02:16:38.995Z,26.75
2022-08-18T02:17:39.948Z,26.80
2022-08-18T02:18:47.922Z,26.37
2022-08-18T02:19:39.018Z,26.43
2022-08-18T02:20:38.931Z,26.48
2022-08-18T02:21:38.928Z,26.37
2022-08-18T02:22:38.916Z,26.48
2022-08-18T02:23:38.897Z,26.69
2022-08-18T02:24:38.870Z,26.53
2022-08-18T02:25:38.845Z,26.59
2022-08-18T02:26:38.870Z,26.86
2022-08-18T02:27:38.864Z,26.69
2022-08-18T02:28:38.824Z,26.69
2022-08-18T02:29:38.803Z,26.69
2022-08-18T02:30:38.813Z,26.53
2022-08-18T02:31:38.820Z,26.37
2022-08-18T02:32:38.756Z,26.75
2022-08-18T02:33:38.773Z,26.64
2022-08-18T02:34:38.765Z,26.75
2022-08-18T02:35:38.785Z,26.59
2022-08-18T02:36:38.713Z,26.64
2022-08-18T02:37:38.693Z,26.53
2022-08-18T02:38:38.688Z,26.69
2022-08-18T02:39:38.753Z,26.43
2022-08-18T02:40:38.683Z,26.80
2022-08-18T02:41:38.663Z,26.75
2022-08-18T02:42:38.655Z,26.64
2022-08-18T02:43:38.627Z,26.64
2022-08-18T02:44:38.625Z,26.80
2022-08-18T02:45:38.659Z,26.80
2022-08-18T02:46:38.600Z,26.16
2022-08-18T02:47:38.611Z,26.53
2022-08-18T02:48:38.599Z,26.43
2022-08-18T02:49:38.537Z,26.80
2022-08-18T02:50:38.539Z,26.75
2022-08-18T02:51:38.555Z,26.32
2022-08-18T02:52:39.411Z,26.80
2022-08-18T02:53:38.490Z,26.64
2022-08-18T02:54:38.483Z,26.53
2022-08-18T02:55:38.468Z,26.64
2022-08-18T02:56:41.064Z,26.59
2022-08-18T02:57:38.441Z,26.32
2022-08-18T02:58:38.491Z,26.75
2022-08-18T02:59:38.446Z,26.69
2022-08-18T03:00:38.461Z,26.64
2022-08-18T03:01:38.533Z,26.59
2022-08-18T03:02:38.372Z,26.10
2022-08-18T03:03:38.381Z,26.69
2022-08-18T03:04:38.391Z,26.53
2022-08-18T03:05:38.362Z,26.53
2022-08-18T03:06:38.321Z,26.10
2022-08-18T03:07:38.314Z,26.75
2022-08-18T03:08:38.293Z,26.59
2022-08-18T03:09:38.283Z,26.43
2022-08-18T03:10:38.249Z,26.53
2022-08-18T03:11:38.251Z,26.10
2022-08-18T03:12:38.254Z,26.75
2022-08-18T03:13:38.232Z,26.59
2022-08-18T03:14:38.242Z,26.32
2022-08-18T03:15:38.191Z,26.32
2022-08-18T03:16:38.181Z,26.64
2022-08-18T03:17:38.191Z,26.75
2022-08-18T03:18:38.179Z,26.59
2022-08-18T03:19:38.168Z,26.53
2022-08-18T03:20:38.121Z,26.53
2022-08-18T03:21:38.104Z,26.80
2022-08-18T03:22:38.124Z,26.53
2022-08-18T03:23:38.073Z,26.64
2022-08-18T03:24:38.107Z,26.53
2022-08-18T03:25:38.055Z,25.67
2022-08-18T03:26:38.027Z,26.64
2022-08-18T03:27:38.032Z,26.53
2022-08-18T03:28:38.027Z,26.21
2022-08-18T03:29:38.078Z,26.21
2022-08-18T03:30:37.977Z,26.48
2022-08-18T03:31:38.010Z,26.64
2022-08-18T03:32:37.952Z,26.64
2022-08-18T03:33:37.951Z,26.75
2022-08-18T03:34:37.925Z,26.75
2022-08-18T03:35:37.929Z,26.75
2022-08-18T03:36:37.911Z,26.80
2022-08-18T03:37:37.888Z,26.48
2022-08-18T03:38:37.873Z,26.69
2022-08-18T03:39:37.897Z,26.32
2022-08-18T03:40:37.876Z,26.69
2022-08-18T03:41:57.166Z,26.48
2022-08-18T03:42:37.818Z,26.53
2022-08-18T03:43:50.989Z,26.69
2022-08-18T03:44:37.817Z,26.10
2022-08-18T03:45:37.820Z,26.64
2022-08-18T03:46:37.831Z,26.48
2022-08-18T03:47:37.797Z,26.75
2022-08-18T03:48:37.769Z,26.69
2022-08-18T03:49:37.751Z,26.69
2022-08-18T03:50:37.704Z,26.59
2022-08-18T03:51:37.710Z,26.75
2022-08-18T03:52:37.685Z,26.53
2022-08-18T03:53:37.670Z,26.43
2022-08-18T03:54:37.665Z,26.53
2022-08-18T03:55:37.626Z,26.16
2022-08-18T03:56:37.618Z,26.32
2022-08-18T03:57:39.332Z,26.75
2022-08-18T03:58:37.597Z,26.69
2022-08-18T03:59:37.600Z,26.53
2022-08-18T04:00:37.584Z,26.80
2022-08-18T04:01:37.751Z,26.75
2022-08-18T04:02:37.560Z,26.48
2022-08-18T04:03:37.541Z,26.59
2022-08-18T04:04:37.523Z,26.48
2022-08-18T04:05:37.512Z,26.53
2022-08-18T04:06:37.494Z,26.16
2022-08-18T04:07:37.487Z,26.69
2022-08-18T04:08:37.460Z,26.32
2022-08-18T04:09:37.449Z,26.69
2022-08-18T04:10:37.454Z,26.75
2022-08-18T04:11:37.442Z,26.75
2022-08-18T04:12:37.433Z,26.53
2022-08-18T04:13:37.410Z,26.75
2022-08-18T04:14:37.393Z,26.59
2022-08-18T04:15:37.376Z,26.75
2022-08-18T04:16:37.391Z,26.69
2022-08-18T04:17:56.260Z,26.59
2022-08-18T04:18:37.343Z,26.53
2022-08-18T04:19:37.319Z,26.69
2022-08-18T04:20:37.292Z,26.53
2022-08-18T04:21:37.280Z,26.75
2022-08-18T04:22:37.353Z,26.48
2022-08-18T04:23:39.467Z,26.69
2022-08-18T04:24:37.235Z,26.32
2022-08-18T04:25:37.248Z,26.64
2022-08-18T04:26:37.208Z,26.75
2022-08-18T04:27:37.205Z,26.32
2022-08-18T04:28:37.208Z,26.48
2022-08-18T04:29:37.206Z,26.75
2022-08-18T04:30:37.187Z,26.64
2022-08-18T04:31:37.176Z,26.53
2022-08-18T04:32:37.141Z,26.59
2022-08-18T04:33:37.113Z,26.69
2022-08-18T04:34:37.125Z,26.64
2022-08-18T04:35:37.134Z,26.53
2022-08-18T04:36:37.078Z,26.59
2022-08-18T04:37:39.514Z,26.48
2022-08-18T04:38:37.061Z,26.80
2022-08-18T04:39:37.101Z,26.32
2022-08-18T04:40:37.046Z,26.10
2022-08-18T04:41:37.017Z,26.75
2022-08-18T04:42:43.276Z,26.53
2022-08-18T04:43:37.001Z,26.80
2022-08-18T04:44:36.993Z,26.69
2022-08-18T04:45:36.970Z,26.64
2022-08-18T04:46:36.953Z,26.69
2022-08-18T04:47:36.943Z,26.48
2022-08-18T04:48:36.923Z,26.53
2022-08-18T04:49:36.901Z,26.69
2022-08-18T04:50:36.898Z,26.43
2022-08-18T04:52:34.157Z,26.16
2022-08-18T04:52:44.122Z,26.69
2022-08-18T04:53:36.868Z,26.59
2022-08-18T04:54:36.829Z,26.69
2022-08-18T04:55:36.810Z,26.48
2022-08-18T04:56:36.806Z,26.59
2022-08-18T04:57:36.783Z,26.80
2022-08-18T04:58:36.810Z,26.69
2022-08-18T04:59:36.800Z,26.64
2022-08-18T05:00:36.772Z,26.59
2022-08-18T05:01:36.798Z,26.59
2022-08-18T05:02:36.721Z,26.53
2022-08-18T05:03:36.702Z,26.10
2022-08-18T05:04:36.724Z,26.59
2022-08-18T05:05:36.690Z,26.53
2022-08-18T05:06:36.685Z,26.69
2022-08-18T05:07:36.689Z,26.80
2022-08-18T05:08:36.672Z,26.53
2022-08-18T05:09:41.456Z,26.53
2022-08-18T05:10:36.684Z,26.16
2022-08-18T05:11:36.626Z,26.64
2022-08-18T05:12:36.605Z,26.64
2022-08-18T05:13:36.607Z,26.37
2022-08-18T05:14:36.643Z,26.59
2022-08-18T05:15:59.385Z,26.53
2022-08-18T05:16:42.098Z,26.80
2022-08-18T05:17:36.533Z,25.83
2022-08-18T05:18:36.531Z,26.80
2022-08-18T05:19:36.503Z,26.80
2022-08-18T05:20:36.525Z,26.32
2022-08-18T05:21:36.467Z,26.69
2022-08-18T05:22:36.482Z,26.69
2022-08-18T05:23:36.465Z,26.80
2022-08-18T05:24:37.509Z,26.64
2022-08-18T05:25:36.487Z,26.69
2022-08-18T05:26:36.433Z,26.69
2022-08-18T05:27:36.387Z,26.59
2022-08-18T05:28:36.430Z,26.75
2022-08-18T05:29:36.361Z,26.64
2022-08-18T05:30:36.353Z,26.21
2022-08-18T05:31:36.353Z,26.37
2022-08-18T05:32:47.642Z,26.75
2022-08-18T05:33:36.317Z,26.26
2022-08-18T05:34:36.312Z,26.75
2022-08-18T05:35:36.282Z,26.75
2022-08-18T05:36:36.280Z,26.80
2022-08-18T05:37:36.251Z,26.86
2022-08-18T05:38:36.269Z,26.75
2022-08-18T05:39:36.253Z,26.75
2022-08-18T05:40:36.225Z,26.75
2022-08-18T05:41:36.218Z,26.75
2022-08-18T05:42:36.190Z,26.75
2022-08-18T05:43:36.202Z,26.48
2022-08-18T05:44:36.193Z,26.64
2022-08-18T05:45:36.144Z,26.80
2022-08-18T05:46:36.142Z,26.59
2022-08-18T05:47:36.220Z,26.43
2022-08-18T05:48:41.233Z,26.86
2022-08-18T05:49:36.113Z,26.59
2022-08-18T05:50:36.083Z,26.75
2022-08-18T05:51:36.097Z,26.64
2022-08-18T05:52:36.076Z,26.86
2022-08-18T05:53:36.064Z,26.80
2022-08-18T05:54:36.073Z,26.75
2022-08-18T05:55:36.041Z,26.64
2022-08-18T05:56:36.012Z,26.69
2022-08-18T05:57:36.040Z,26.43
2022-08-18T05:58:36.033Z,26.69
2022-08-18T05:59:35.967Z,26.75
2022-08-18T06:00:35.943Z,26.69
2022-08-18T06:01:35.964Z,26.86
2022-08-18T06:02:35.999Z,26.64
2022-08-18T06:03:46.576Z,26.86
2022-08-18T06:04:35.938Z,26.75
2022-08-18T06:05:35.893Z,26.86
2022-08-18T06:06:35.866Z,26.59
2022-08-18T06:07:35.899Z,26.91
2022-08-18T06:08:35.845Z,26.69
2022-08-18T06:09:35.847Z,26.86
2022-08-18T06:10:35.832Z,26.69
2022-08-18T06:11:35.825Z,26.80
2022-08-18T06:12:37.745Z,26.80
2022-08-18T06:13:35.792Z,26.75
2022-08-18T06:14:35.864Z,26.80
2022-08-18T06:15:35.768Z,26.80
2022-08-18T06:16:35.746Z,26.75
2022-08-18T06:17:35.716Z,26.86
2022-08-18T06:18:35.729Z,26.80
2022-08-18T06:19:35.724Z,26.80
2022-08-18T06:20:35.680Z,26.80
2022-08-18T06:21:38.925Z,26.80
2022-08-18T06:22:35.658Z,26.75
2022-08-18T06:23:35.654Z,26.80
2022-08-18T06:24:35.655Z,26.80
2022-08-18T06:25:35.640Z,26.64
2022-08-18T06:26:35.615Z,26.86
2022-08-18T06:27:35.612Z,26.86
2022-08-18T06:28:35.594Z,26.64
2022-08-18T06:29:35.568Z,26.80
2022-08-18T06:30:35.563Z,26.96
2022-08-18T06:31:35.527Z,26.80
2022-08-18T06:32:35.549Z,26.96
2022-08-18T06:33:35.540Z,26.86
2022-08-18T06:34:35.512Z,26.91
2022-08-18T06:35:35.490Z,26.86
2022-08-18T06:36:35.488Z,26.69
2022-08-18T06:37:35.454Z,26.91
2022-08-18T06:38:35.481Z,26.75
2022-08-18T06:39:35.469Z,26.86
2022-08-18T06:40:35.427Z,26.80
2022-08-18T06:41:41.007Z,26.37
2022-08-18T06:42:40.329Z,26.91
2022-08-18T06:43:35.467Z,26.91
2022-08-18T06:44:35.393Z,26.91
2022-08-18T06:45:35.957Z,26.80
2022-08-18T06:46:35.353Z,26.91
2022-08-18T06:47:35.445Z,26.86
2022-08-18T06:48:35.327Z,26.80
2022-08-18T06:49:35.314Z,26.86
2022-08-18T06:50:35.302Z,26.43
2022-08-18T06:51:40.165Z,26.91
2022-08-18T06:52:35.343Z,26.91
2022-08-18T06:53:35.234Z,26.75
2022-08-18T06:54:35.233Z,26.96
2022-08-18T06:55:35.222Z,26.69
2022-08-18T06:56:35.246Z,26.59
2022-08-18T06:57:35.208Z,26.80
2022-08-18T06:58:35.208Z,26.91
2022-08-18T06:59:35.170Z,26.91
2022-08-18T07:00:35.257Z,26.75
2022-08-18T07:01:35.185Z,26.75
2022-08-18T07:02:35.775Z,26.86
2022-08-18T07:03:35.121Z,26.91
2022-08-18T07:04:35.121Z,26.80
2022-08-18T07:05:35.139Z,26.91
2022-08-18T07:06:35.083Z,26.91
2022-08-18T07:07:40.356Z,26.75
2022-08-18T07:08:35.804Z,26.80
2022-08-18T07:09:35.064Z,26.96
2022-08-18T07:10:35.069Z,26.80
2022-08-18T07:11:35.060Z,26.80
2022-08-18T07:12:34.989Z,26.96
2022-08-18T07:13:34.998Z,26.80
2022-08-18T07:14:34.967Z,26.59
2022-08-18T07:15:34.976Z,26.75
2022-08-18T07:16:57.041Z,27.02
2022-08-18T07:17:43.185Z,26.96
2022-08-18T07:18:34.950Z,26.86
2022-08-18T07:19:34.925Z,26.64
2022-08-18T07:20:34.899Z,26.80
2022-08-18T07:21:34.946Z,26.86
2022-08-18T07:22:39.495Z,26.96
2022-08-18T07:23:34.864Z,26.80
2022-08-18T07:24:34.835Z,26.80
2022-08-18T07:25:34.830Z,26.80
2022-08-18T07:26:34.833Z,26.96
2022-08-18T07:27:34.830Z,26.96
2022-08-18T07:28:34.796Z,26.91
2022-08-18T07:29:34.801Z,26.80
2022-08-18T07:30:34.763Z,26.91
2022-08-18T07:31:34.774Z,26.75
2022-08-18T07:32:36.682Z,26.80
2022-08-18T07:33:37.635Z,26.86
2022-08-18T07:34:34.752Z,26.86
2022-08-18T07:35:35.643Z,26.80
2022-08-18T07:36:34.705Z,26.86
2022-08-18T07:37:34.697Z,26.96
2022-08-18T07:38:43.839Z,26.96
2022-08-18T07:39:35.698Z,26.80
2022-08-18T07:40:34.635Z,26.91
2022-08-18T07:41:34.617Z,26.80
2022-08-18T07:43:01.652Z,26.80
2022-08-18T07:43:34.634Z,26.43
2022-08-18T07:44:35.867Z,26.86
2022-08-18T07:45:36.459Z,26.86
2022-08-18T07:46:35.187Z,26.69
2022-08-18T07:47:35.303Z,26.91
2022-08-18T07:48:40.058Z,26.86
2022-08-18T07:49:35.472Z,26.86
2022-08-18T07:50:58.283Z,26.86
2022-08-18T07:51:37.242Z,26.96
2022-08-18T07:52:36.344Z,26.91
2022-08-18T07:53:34.493Z,26.86
2022-08-18T07:54:50.814Z,26.86
2022-08-18T07:55:34.538Z,26.86
2022-08-18T07:56:34.443Z,26.96
2022-08-18T07:57:35.392Z,26.86
2022-08-18T07:58:34.427Z,26.75
2022-08-18T07:59:34.395Z,26.96
2022-08-18T08:00:57.462Z,26.91
2022-08-18T08:01:34.544Z,26.86
2022-08-18T08:02:34.394Z,26.91
2022-08-18T08:03:34.384Z,26.64
2022-08-18T08:04:34.405Z,26.96
2022-08-18T08:05:34.323Z,26.91
2022-08-18T08:06:34.412Z,26.86
2022-08-18T08:07:34.437Z,26.96
2022-08-18T08:08:34.342Z,26.86
2022-08-18T08:09:34.301Z,26.86
2022-08-18T08:10:34.447Z,26.86
2022-08-18T08:11:34.260Z,26.86
2022-08-18T08:12:34.344Z,26.91
2022-08-18T08:13:54.213Z,26.91
2022-08-18T08:14:34.228Z,26.91
2022-08-18T08:15:34.245Z,27.02
2022-08-18T08:16:34.218Z,26.96
2022-08-18T08:17:34.292Z,26.91
2022-08-18T08:18:34.178Z,26.96
2022-08-18T08:19:58.980Z,27.02
2022-08-18T08:20:34.106Z,26.96
2022-08-18T08:21:34.153Z,27.07
2022-08-18T08:22:34.171Z,26.86
2022-08-18T08:23:34.085Z,27.02
2022-08-18T08:24:34.126Z,27.02
2022-08-18T08:25:46.276Z,26.91
2022-08-18T08:26:34.040Z,26.96
2022-08-18T08:27:34.054Z,26.91
2022-08-18T08:28:33.997Z,27.02
2022-08-18T08:29:34.010Z,26.96
2022-08-18T08:30:34.262Z,27.02
2022-08-18T08:31:36.638Z,26.91
2022-08-18T08:32:33.939Z,27.02
2022-08-18T08:33:33.951Z,26.91
2022-08-18T08:34:33.935Z,26.91
2022-08-18T08:35:50.037Z,26.96
2022-08-18T08:36:33.945Z,27.02
2022-08-18T08:37:33.902Z,26.86
2022-08-18T08:38:43.141Z,26.96
2022-08-18T08:39:33.991Z,27.02
2022-08-18T08:40:33.850Z,27.07
2022-08-18T08:41:33.979Z,27.07
2022-08-18T08:42:37.471Z,27.12
2022-08-18T08:43:33.844Z,27.02
2022-08-18T08:44:33.793Z,27.02
2022-08-18T08:45:33.810Z,27.02
2022-08-18T08:46:33.781Z,27.18
2022-08-18T08:47:33.798Z,27.18
2022-08-18T08:48:33.763Z,27.18
2022-08-18T08:49:33.756Z,27.12
2022-08-18T08:50:33.729Z,27.18
2022-08-18T08:51:33.737Z,27.12
2022-08-18T08:52:33.746Z,27.12
2022-08-18T08:53:33.685Z,27.12
2022-08-18T08:54:33.691Z,27.18
2022-08-18T08:55:33.726Z,27.18
2022-08-18T08:56:33.674Z,27.18
2022-08-18T08:57:33.663Z,27.23
2022-08-18T08:58:33.621Z,27.23
2022-08-18T08:59:33.611Z,27.23
2022-08-18T09:00:33.620Z,27.18
2022-08-18T09:01:33.644Z,27.23
2022-08-18T09:02:47.318Z,27.23
2022-08-18T09:03:33.578Z,27.18
2022-08-18T09:04:33.549Z,27.23
2022-08-18T09:05:33.562Z,27.23
2022-08-18T09:06:33.579Z,27.23
2022-08-18T09:07:38.031Z,27.23
2022-08-18T09:08:33.553Z,27.18
2022-08-18T09:09:33.818Z,27.23
2022-08-18T09:10:33.811Z,27.18
2022-08-18T09:11:33.509Z,27.23
2022-08-18T09:12:33.482Z,27.18
2022-08-18T09:13:33.489Z,27.18
2022-08-18T09:14:33.470Z,27.23
2022-08-18T09:15:33.490Z,27.23
2022-08-18T09:16:33.481Z,27.23
2022-08-18T09:17:34.242Z,27.18
2022-08-18T09:18:33.392Z,27.18
2022-08-18T09:19:33.426Z,27.18
2022-08-18T09:20:33.431Z,27.18
2022-08-18T09:21:33.386Z,27.29
2022-08-18T09:22:33.413Z,27.23
2022-08-18T09:23:33.320Z,27.29
2022-08-18T09:24:33.357Z,27.23
2022-08-18T09:25:33.384Z,27.23
2022-08-18T09:26:38.580Z,27.23
2022-08-18T09:27:48.492Z,27.23
2022-08-18T09:28:33.286Z,27.23
2022-08-18T09:29:33.295Z,27.18
2022-08-18T09:30:33.250Z,27.23
2022-08-18T09:31:33.268Z,27.23
2022-08-18T09:32:33.221Z,27.18
2022-08-18T09:33:33.217Z,27.23
2022-08-18T09:34:33.184Z,27.23
2022-08-18T09:35:33.196Z,27.18
2022-08-18T09:36:33.166Z,27.23
2022-08-18T09:37:33.168Z,27.23
2022-08-18T09:38:33.186Z,27.23
2022-08-18T09:39:33.170Z,27.23
2022-08-18T09:41:01.089Z,27.18
2022-08-18T09:41:33.197Z,27.18
2022-08-18T09:42:33.114Z,27.18
2022-08-18T09:43:33.111Z,27.18
2022-08-18T09:44:33.124Z,27.18
2022-08-18T09:45:34.196Z,27.18
2022-08-18T09:46:33.064Z,27.18
2022-08-18T09:47:33.050Z,27.12
2022-08-18T09:48:33.058Z,27.12
2022-08-18T09:49:38.052Z,27.18
2022-08-18T09:50:33.022Z,27.23
2022-08-18T09:51:32.991Z,27.18
2022-08-18T09:52:32.980Z,27.18
2022-08-18T09:53:32.986Z,27.18
2022-08-18T09:54:33.105Z,27.18
2022-08-18T09:55:32.970Z,27.12
2022-08-18T09:56:32.968Z,27.23
2022-08-18T13:04:55.676Z,27.18
2022-08-18T13:05:01.419Z,27.18
2022-08-18T13:06:01.387Z,27.18
2022-08-18T13:07:05.789Z,27.18
2022-08-18T13:08:04.529Z,27.23
2022-08-18T13:09:01.379Z,27.23
2022-08-18T13:10:01.448Z,27.23
2022-08-18T13:11:15.141Z,27.29
2022-08-18T13:12:01.365Z,27.18
2022-08-18T13:13:01.320Z,27.23
2022-08-18T13:14:03.129Z,27.23
2022-08-18T13:15:01.305Z,27.18
2022-08-18T13:16:03.476Z,27.12
2022-08-18T13:17:01.311Z,27.23
2022-08-18T13:18:01.252Z,27.23
2022-08-18T13:19:01.280Z,27.18
2022-08-18T13:20:01.267Z,27.18
2022-08-18T13:21:01.258Z,27.18
2022-08-18T13:22:01.189Z,27.18
2022-08-18T13:23:01.258Z,27.12
2022-08-18T13:24:01.180Z,27.18
2022-08-18T13:25:01.212Z,27.18
2022-08-18T13:26:02.287Z,27.12
2022-08-18T13:27:01.210Z,27.18
2022-08-18T13:28:02.103Z,27.18
2022-08-18T13:29:01.283Z,27.18
2022-08-18T13:30:01.117Z,27.18
2022-08-18T13:31:01.159Z,27.18
2022-08-18T13:32:01.117Z,27.12
2022-08-18T13:33:05.225Z,27.12
2022-08-18T13:34:04.074Z,27.12
2022-08-18T13:35:02.723Z,27.07
2022-08-18T13:36:01.045Z,27.18
2022-08-18T13:37:01.153Z,27.18
2022-08-18T13:38:02.399Z,27.12
2022-08-18T13:39:00.994Z,27.18
2022-08-18T13:40:01.963Z,27.02
2022-08-18T13:41:00.977Z,27.12
2022-08-18T13:42:00.989Z,27.18
2022-08-18T13:43:00.961Z,27.18
2022-08-18T13:44:01.008Z,27.12
2022-08-18T13:45:24.937Z,27.12
2022-08-18T13:46:01.064Z,27.12
2022-08-18T13:47:00.937Z,27.07
2022-08-18T13:48:00.929Z,27.12
2022-08-18T13:49:00.892Z,27.18
2022-08-18T13:50:00.870Z,27.12
2022-08-18T13:51:01.062Z,27.12
2022-08-18T13:52:03.123Z,27.18
2022-08-18T13:53:00.977Z,27.18
2022-08-18T13:54:28.706Z,27.12
2022-08-18T13:55:01.049Z,27.12
2022-08-18T13:56:00.790Z,27.12
2022-08-18T13:57:00.772Z,27.07
2022-08-18T13:58:00.755Z,27.07
2022-08-18T13:59:00.841Z,27.07
2022-08-18T14:00:00.797Z,27.07
2022-08-18T14:02:00.835Z,27.12
2022-08-18T14:03:03.323Z,27.07
2022-08-18T14:04:00.689Z,27.07
2022-08-18T14:05:00.712Z,27.12
2022-08-18T14:06:01.504Z,27.12
2022-08-18T14:07:03.264Z,27.07
2022-08-18T14:08:00.660Z,27.02
2022-08-18T14:09:00.665Z,27.12
2022-08-18T14:10:04.314Z,27.12
2022-08-18T14:11:00.670Z,27.12
2022-08-18T14:12:00.604Z,27.02
2022-08-18T14:13:00.602Z,26.86
2022-08-18T14:14:00.613Z,27.07
2022-08-18T14:15:00.605Z,27.07
2022-08-18T14:16:00.561Z,27.07
2022-08-18T14:17:00.557Z,27.07
2022-08-18T14:18:00.514Z,27.07
2022-08-18T14:19:00.557Z,27.12
2022-08-18T14:20:00.520Z,27.12
2022-08-18T14:21:00.487Z,27.07
2022-08-18T14:22:00.473Z,27.07
2022-08-18T14:23:00.506Z,27.07
2022-08-18T14:24:00.510Z,27.02
2022-08-18T14:25:00.645Z,27.07
2022-08-18T14:26:00.514Z,27.07
2022-08-18T14:27:00.414Z,27.12
2022-08-18T14:28:03.977Z,27.07
2022-08-18T14:29:00.364Z,27.12
2022-08-18T14:30:00.392Z,27.02
2022-08-18T14:31:00.355Z,27.12
2022-08-18T14:32:00.358Z,27.07
2022-08-18T14:33:00.466Z,27.07
2022-08-18T14:34:04.115Z,27.02
2022-08-18T14:35:26.950Z,27.07
2022-08-18T14:36:06.432Z,27.07
2022-08-18T14:37:00.277Z,27.02
2022-08-18T14:38:00.302Z,27.12
2022-08-18T14:39:00.254Z,27.12
2022-08-18T14:40:00.339Z,27.07
2022-08-18T14:41:00.248Z,27.07
2022-08-18T14:42:03.150Z,27.02
2022-08-18T14:43:00.185Z,26.86
2022-08-18T14:44:12.199Z,27.07
2022-08-18T14:45:17.509Z,27.02
2022-08-18T14:46:00.160Z,27.12
2022-08-18T14:47:00.113Z,27.12
2022-08-18T14:48:00.115Z,27.07
2022-08-18T14:49:00.099Z,27.02
2022-08-18T14:50:00.219Z,27.02
2022-08-18T14:51:00.057Z,27.02
2022-08-18T14:52:00.097Z,27.02
2022-08-18T14:53:00.041Z,27.02
2022-08-18T14:54:00.069Z,27.07
2022-08-18T14:55:00.012Z,27.02
2022-08-18T14:56:00.033Z,26.96
2022-08-18T14:57:00.050Z,27.07
2022-08-18T14:58:00.045Z,27.07
2022-08-18T14:58:59.982Z,27.07
2022-08-18T15:00:00.012Z,27.07
2022-08-18T15:01:00.064Z,27.02
2022-08-18T15:01:59.929Z,27.12
2022-08-18T15:03:00.235Z,27.12
2022-08-18T15:03:59.924Z,27.07
2022-08-18T15:04:59.928Z,27.02
2022-08-18T15:05:59.997Z,27.12
2022-08-18T15:06:59.917Z,27.02
2022-08-18T15:07:59.861Z,27.02
2022-08-18T15:08:59.859Z,26.86
2022-08-18T15:10:14.941Z,27.07
2022-08-18T15:10:59.848Z,27.07
2022-08-18T15:11:59.839Z,27.07
2022-08-18T15:12:59.804Z,27.02
2022-08-18T15:13:59.801Z,27.02
2022-08-18T15:14:59.787Z,27.02
2022-08-18T15:16:01.967Z,27.02
2022-08-18T15:16:59.789Z,27.07
2022-08-18T15:17:59.824Z,27.07
2022-08-18T15:19:00.299Z,27.12
2022-08-18T15:20:01.201Z,27.02
2022-08-18T15:20:59.705Z,27.02
2022-08-18T15:21:59.717Z,27.07
2022-08-18T15:22:59.690Z,27.02
2022-08-18T15:23:59.694Z,27.02
2022-08-18T15:24:59.638Z,27.02
2022-08-18T15:25:59.773Z,27.07
2022-08-18T15:27:05.566Z,27.02
2022-08-18T15:27:59.630Z,27.07
2022-08-18T15:29:00.634Z,27.02
2022-08-18T15:29:59.585Z,27.02
2022-08-18T15:32:05.642Z,27.02
2022-08-18T15:32:59.576Z,27.02
2022-08-18T15:33:59.572Z,27.02
2022-08-18T15:34:59.534Z,27.02
2022-08-18T15:35:59.517Z,26.96
2022-08-18T15:37:09.821Z,26.75
2022-08-18T15:37:59.495Z,26.96
2022-08-18T15:38:59.465Z,26.96
2022-08-18T15:39:59.586Z,26.91
2022-08-18T15:40:59.471Z,27.02
2022-08-18T15:41:59.874Z,27.02
2022-08-18T15:43:01.182Z,27.02
2022-08-18T15:43:59.415Z,27.02
2022-08-18T15:44:59.411Z,26.96
2022-08-18T15:45:59.452Z,26.96
2022-08-18T15:46:59.385Z,26.91
2022-08-18T15:47:59.364Z,26.96
2022-08-18T15:48:59.361Z,26.96
2022-08-18T15:49:59.358Z,27.02
2022-08-18T15:51:06.137Z,26.96
2022-08-18T15:51:59.313Z,26.91
2022-08-18T15:52:59.297Z,27.02
2022-08-18T15:53:59.286Z,27.02
2022-08-18T15:55:02.218Z,26.91
2022-08-18T15:56:04.322Z,26.75
2022-08-18T15:56:59.253Z,27.02
2022-08-18T15:57:59.302Z,27.02
2022-08-18T15:59:00.604Z,26.91
2022-08-18T15:59:59.293Z,26.91
2022-08-18T16:00:59.251Z,26.96